Graz, Austria
Current Conditions -  °F | °C
As of 10:20 AM on Sunday 21 Dec 2014 (Local Time) from LOWG Reporting Station
Few Clouds Few Clouds  
Wind Chill: 39°   Ceiling: Unl
Heat Index: 39°   Visibility: 6mi
Dew Point: 32°   Wind: 2mph
Humidity: 75%   Direction: NA
Pressure: 30.3"   Gusts: NA
Location:  47.08°N, 15.42°E
Report Text: LOWG 210820Z VRB02KT 9999 FEW065 04/00 Q1026 TEMPO 35010KT
Loading
Personal Weather Stations






























Interactive Weather Map New forecast layout! Learn more

10-Day Weather Forecast

Advertisements
Track Severe Weather on mobile